Time;durP1;ratioP1;P1;durP2;ratioP2;P2;SDS_P1;SDS_P2;PMS_P1;PMS_P2;Temp;Humidity;BMP_temperature;BMP_pressure;BME280_temperature;BME280_humidity;BME280_pressure;Samples;Min_cycle;Max_cycle;Signal;HPM_P1;HPM_P2
2023/01/12 00:01:11;;;;;;;21.15;2.35;;;7.30;99.90;;;;;;6301832;22;20090;-83
2023/01/12 00:03:37;;;;;;;12.45;2.30;;;6.90;99.90;;;;;;6299838;22;20011;-83
2023/01/12 00:06:06;;;;;;;16.48;2.97;;;7.30;99.90;;;;;;6274341;22;20486;-83
2023/01/12 00:08:33;;;;;;;23.05;2.50;;;6.90;99.90;;;;;;6273770;22;20015;-83
2023/01/12 00:11:00;;;;;;;22.38;3.25;;;6.90;99.90;;;;;;6248772;22;20106;-82
2023/01/12 00:13:28;;;;;;;31.50;4.40;;;6.90;99.90;;;;;;6274590;22;20087;-83
2023/01/12 00:18:41;;;;;;;29.00;4.20;;;7.00;99.90;;;;;;6274363;22;20339;-83
2023/01/12 00:21:07;;;;;;;25.45;3.63;;;7.00;99.90;;;;;;6274608;22;20446;-83
2023/01/12 00:23:33;;;;;;;17.88;3.13;;;7.10;99.90;;;;;;6273190;22;20062;-83
2023/01/12 00:25:59;;;;;;;27.33;4.05;;;7.10;99.90;;;;;;6273953;22;20357;-83
2023/01/12 00:28:24;;;;;;;26.63;3.50;;;7.10;99.90;;;;;;6325054;22;20034;-83
2023/01/12 00:30:50;;;;;;;28.50;4.00;;;7.20;99.90;;;;;;6272479;22;20023;-83
2023/01/12 00:33:15;;;;;;;32.63;4.30;;;7.60;99.90;;;;;;6302489;22;20019;-83
2023/01/12 00:35:41;;;;;;;25.63;4.18;;;7.30;99.90;;;;;;6273696;22;20432;-82
2023/01/12 00:38:07;;;;;;;32.65;4.82;;;7.70;99.90;;;;;;6301163;22;20015;-82
2023/01/12 00:40:35;;;;;;;29.42;3.95;;;7.40;99.90;;;;;;6273855;22;20011;-83
2023/01/12 00:45:49;;;;;;;33.33;4.25;;;7.70;99.90;;;;;;6273376;22;20020;-82
2023/01/12 00:48:15;;;;;;;34.08;4.53;;;7.40;99.90;;;;;;6273875;22;20015;-82
2023/01/12 00:50:41;;;;;;;36.75;4.55;;;7.40;99.90;;;;;;6273291;22;20050;-82
2023/01/12 00:53:06;;;;;;;22.42;3.42;;;8.10;99.90;;;;;;6248037;22;20115;-82
2023/01/12 00:55:32;;;;;;;28.15;4.80;;;7.50;99.90;;;;;;6274189;22;20022;-82
2023/01/12 00:57:58;;;;;;;31.73;4.38;;;7.70;99.90;;;;;;6272469;22;20090;-83
2023/01/12 01:00:23;;;;;;;33.25;4.47;;;7.60;99.90;;;;;;6273716;22;20015;-82
2023/01/12 01:02:49;;;;;;;36.15;4.55;;;7.80;99.90;;;;;;6273958;22;20450;-83
2023/01/12 01:05:16;;;;;;;33.95;4.20;;;7.50;99.90;;;;;;6301392;22;20441;-82
2023/01/12 01:07:42;;;;;;;29.25;4.88;;;7.50;99.90;;;;;;6274306;22;20038;-83
2023/01/12 01:10:10;;;;;;;27.85;4.47;;;7.40;99.90;;;;;;6273766;22;20012;-83
2023/01/12 01:12:35;;;;;;;37.80;5.38;;;7.40;99.90;;;;;;6300236;22;20012;-83
2023/01/12 01:15:02;;;;;;;32.88;5.18;;;7.40;99.90;;;;;;6324919;22;20086;-83
2023/01/12 01:17:28;;;;;;;27.15;3.83;;;8.00;99.90;;;;;;6248288;22;20021;-82
2023/01/12 01:19:54;;;;;;;33.08;4.40;;;7.40;99.90;;;;;;6273422;22;20338;-83
2023/01/12 01:22:20;;;;;;;31.27;4.60;;;7.60;99.90;;;;;;6274686;22;20443;-83
2023/01/12 01:24:47;;;;;;;24.45;4.25;;;7.50;99.90;;;;;;6273058;22;20023;-83
2023/01/12 01:27:12;;;;;;;28.63;4.28;;;7.50;99.90;;;;;;6273065;22;20024;-82
2023/01/12 01:29:38;;;;;;;24.23;4.20;;;7.50;99.90;;;;;;6273682;22;20450;-82
2023/01/12 01:32:05;;;;;;;25.00;3.75;;;7.90;99.90;;;;;;6272191;22;20486;-83
2023/01/12 01:34:30;;;;;;;25.95;3.72;;;7.50;99.90;;;;;;6274197;22;20025;-83
2023/01/12 01:36:56;;;;;;;22.23;3.88;;;7.60;99.90;;;;;;6247374;22;20399;-83
2023/01/12 01:39:22;;;;;;;28.95;4.38;;;8.40;99.90;;;;;;6273065;22;20026;-83
2023/01/12 01:41:47;;;;;;;29.55;4.25;;;7.60;99.90;;;;;;6247467;22;20022;-83
2023/01/12 01:44:28;;;;;;;28.17;3.92;;;7.60;99.90;;;;;;6273418;22;20335;-83
2023/01/12 01:47:05;;;;;;;30.95;4.38;;;7.60;99.90;;;;;;6272820;22;20362;-83
2023/01/12 01:49:36;;;;;;;31.70;3.97;;;7.60;99.90;;;;;;6273521;22;20030;-82
2023/01/12 01:52:06;;;;;;;21.88;3.40;;;7.50;99.90;;;;;;6274082;22;20104;-83
2023/01/12 01:54:36;;;;;;;29.73;4.22;;;7.60;99.90;;;;;;6273415;22;20015;-83
2023/01/12 01:57:03;;;;;;;30.00;4.80;;;7.50;99.90;;;;;;6272811;22;20022;-83
2023/01/12 01:59:33;;;;;;;28.05;4.13;;;7.50;99.90;;;;;;6273825;22;20451;-83
2023/01/12 02:01:59;;;;;;;25.80;4.25;;;7.60;99.90;;;;;;6297944;22;20027;-83
2023/01/12 02:04:25;;;;;;;31.35;4.55;;;7.50;99.90;;;;;;6301660;22;20407;-83
2023/01/12 02:06:54;;;;;;;28.63;5.28;;;7.40;99.90;;;;;;6301255;22;20071;-83
2023/01/12 02:09:24;;;;;;;27.42;4.55;;;7.40;99.90;;;;;;6272242;22;20018;-82
2023/01/12 02:17:33;;;;;;;27.27;4.72;;;7.40;99.90;;;;;;6273586;22;20397;-83
2023/01/12 02:20:25;;;;;;;27.40;4.20;;;7.50;99.90;;;;;;6301060;22;20423;-83
2023/01/12 02:23:08;;;;;;;25.73;4.03;;;7.50;99.90;;;;;;6272001;22;20325;-83
2023/01/12 02:25:45;;;;;;;26.83;4.53;;;7.60;99.90;;;;;;6273442;22;20071;-83
2023/01/12 02:28:15;;;;;;;35.08;4.50;;;7.60;99.90;;;;;;6273567;22;20054;-83
2023/01/12 02:31:09;;;;;;;29.80;5.00;;;8.10;99.90;;;;;;6301164;22;20339;-82
2023/01/12 02:33:44;;;;;;;;;;;7.70;99.90;;;;;;6273919;22;20079;-82
2023/01/12 02:36:22;;;;;;;26.50;4.88;;;7.70;99.90;;;;;;6273190;22;19919;-83
2023/01/12 02:38:50;;;;;;;40.15;5.32;;;7.70;99.90;;;;;;6273226;22;20019;-83
2023/01/12 02:44:28;;;;;;;35.65;7.35;;;7.80;99.90;;;;;;6273398;22;20056;-83
2023/01/12 02:46:57;;;;;;;32.30;5.82;;;7.80;99.90;;;;;;6249612;22;20119;-83
2023/01/12 02:49:27;;;;;;;39.67;5.60;;;8.00;99.90;;;;;;6274328;22;20030;-83
2023/01/12 02:52:04;;;;;;;43.90;5.18;;;7.90;99.90;;;;;;6300362;22;20019;-83
2023/01/12 02:54:32;;;;;;;42.38;5.32;;;7.80;99.90;;;;;;6275511;22;20013;-83
2023/01/12 02:57:05;;;;;;;34.60;5.60;;;8.00;99.90;;;;;;6247329;22;20064;-83
2023/01/12 02:59:34;;;;;;;35.17;4.50;;;7.80;99.90;;;;;;6274864;22;20012;-83
2023/01/12 03:02:08;;;;;;;44.72;5.82;;;7.80;99.90;;;;;;6274231;22;20042;-83
2023/01/12 03:04:34;;;;;;;38.45;7.15;;;7.90;99.90;;;;;;6274626;22;20090;-83
2023/01/12 03:06:59;;;;;;;34.40;4.85;;;7.90;99.90;;;;;;6302370;22;20026;-82
2023/01/12 03:09:29;;;;;;;28.83;4.03;;;7.90;99.90;;;;;;6275232;22;20019;-83
2023/01/12 03:12:02;;;;;;;25.92;4.03;;;7.80;99.90;;;;;;6272727;22;20018;-83
2023/01/12 03:14:32;;;;;;;30.13;4.32;;;7.90;99.90;;;;;;6302539;22;20023;-83
2023/01/12 03:17:01;;;;;;;27.73;4.28;;;7.80;99.90;;;;;;6274578;22;20312;-83
2023/01/12 03:19:31;;;;;;;34.15;5.38;;;7.90;99.90;;;;;;6273978;22;20023;-83
2023/01/12 03:22:01;;;;;;;32.97;4.85;;;8.30;99.90;;;;;;6274815;22;20019;-83
2023/01/12 03:24:31;;;;;;;35.25;4.40;;;8.10;99.90;;;;;;6274359;22;20019;-83
2023/01/12 03:27:06;;;;;;;30.33;4.75;;;8.40;99.90;;;;;;6273540;22;20015;-83
2023/01/12 03:29:36;;;;;;;32.20;5.43;;;8.00;99.90;;;;;;6274580;22;20023;-83
2023/01/12 03:32:03;;;;;;;25.48;4.00;;;8.30;99.90;;;;;;6273415;22;20016;-83
2023/01/12 03:34:31;;;;;;;31.55;4.03;;;8.00;99.90;;;;;;6274835;22;20106;-83
2023/01/12 03:37:09;;;;;;;34.67;4.72;;;8.00;99.90;;;;;;6274165;22;20015;-83
2023/01/12 03:39:49;;;;;;;36.42;4.45;;;8.10;99.90;;;;;;6248598;22;20022;-83
2023/01/12 03:42:36;;;;;;;26.05;4.38;;;8.00;99.90;;;;;;6274408;22;20633;-83
2023/01/12 03:45:26;;;;;;;30.67;4.25;;;8.00;99.90;;;;;;6273519;22;20023;-83
2023/01/12 03:48:00;;;;;;;37.63;5.15;;;8.00;99.90;;;;;;6247285;22;20034;-83
2023/01/12 03:50:33;;;;;;;27.27;4.20;;;8.00;99.90;;;;;;6275127;22;20258;-83
2023/01/12 03:53:01;;;;;;;27.70;3.80;;;8.00;99.90;;;;;;6273223;22;20357;-83
2023/01/12 03:55:29;;;;;;;30.63;4.20;;;8.00;99.90;;;;;;6274622;22;20374;-83
2023/01/12 03:57:55;;;;;;;23.25;4.22;;;8.10;99.90;;;;;;6273381;22;20064;-83
2023/01/12 04:00:23;;;;;;;26.92;3.90;;;8.00;99.90;;;;;;6273628;22;20086;-83
2023/01/12 04:02:49;;;;;;;29.38;4.45;;;8.10;99.90;;;;;;6273812;22;20019;-83
2023/01/12 04:05:15;;;;;;;26.55;3.90;;;8.50;99.90;;;;;;6274972;22;20041;-83
2023/01/12 04:07:41;;;;;;;24.98;3.30;;;8.40;99.90;;;;;;6273597;22;20025;-83
2023/01/12 04:10:07;;;;;;;28.13;3.83;;;8.10;99.90;;;;;;6274354;22;20094;-83
2023/01/12 04:12:33;;;;;;;24.40;3.78;;;8.10;99.90;;;;;;6274182;22;20019;-83
2023/01/12 04:14:58;;;;;;;27.88;3.78;;;8.20;99.90;;;;;;6323674;22;20073;-83
2023/01/12 04:17:26;;;;;;;32.65;4.00;;;8.30;99.90;;;;;;6300708;22;20479;-83
2023/01/12 04:19:52;;;;;;;26.05;4.25;;;8.20;99.90;;;;;;6273827;22;20023;-83
2023/01/12 04:25:03;;;;;;;33.22;5.05;;;8.20;99.90;;;;;;6273789;22;20214;-83
2023/01/12 04:27:29;;;;;;;25.02;4.05;;;8.20;99.90;;;;;;6273603;22;20026;-83
2023/01/12 04:29:55;;;;;;;21.55;3.53;;;8.10;99.90;;;;;;6272364;22;20023;-83
2023/01/12 04:32:21;;;;;;;21.25;3.72;;;8.20;99.90;;;;;;6274554;22;20298;-83
2023/01/12 04:34:46;;;;;;;28.70;3.55;;;8.30;99.90;;;;;;6298794;22;20069;-83
2023/01/12 04:37:12;;;;;;;17.27;3.00;;;8.20;99.90;;;;;;6301365;22;20023;-83
2023/01/12 04:39:38;;;;;;;16.27;3.58;;;8.20;99.90;;;;;;6301479;22;20506;-83
2023/01/12 04:42:04;;;;;;;16.17;2.90;;;8.50;99.90;;;;;;6272475;22;20094;-83
2023/01/12 04:44:31;;;;;;;17.45;2.83;;;8.30;99.90;;;;;;6299585;22;20351;-83
2023/01/12 04:46:56;;;;;;;15.70;2.45;;;8.30;99.90;;;;;;6273297;22;20018;-83
2023/01/12 04:49:22;;;;;;;13.02;1.77;;;8.20;99.90;;;;;;6273443;22;20080;-83
2023/01/12 04:51:48;;;;;;;12.50;2.10;;;8.60;99.90;;;;;;6298750;22;20022;-83
2023/01/12 04:54:13;;;;;;;7.60;1.67;;;8.50;99.90;;;;;;6274093;22;20125;-83
2023/01/12 04:56:39;;;;;;;13.38;2.33;;;8.20;99.90;;;;;;6273464;22;20324;-83
2023/01/12 04:59:07;;;;;;;12.18;2.13;;;8.20;99.90;;;;;;6271791;22;20094;-83
2023/01/12 05:01:35;;;;;;;14.70;2.25;;;8.20;99.90;;;;;;6302214;22;20019;-83
2023/01/12 05:04:01;;;;;;;9.93;1.95;;;8.30;99.90;;;;;;6271792;22;20015;-83
2023/01/12 05:06:27;;;;;;;11.30;1.85;;;8.20;99.90;;;;;;6273922;22;20030;-83
2023/01/12 05:11:37;;;;;;;8.00;1.33;;;8.10;99.90;;;;;;6272689;22;20023;-84
2023/01/12 05:14:03;;;;;;;10.32;1.50;;;8.10;99.90;;;;;;6272212;22;20631;-82
2023/01/12 05:16:29;;;;;;;7.85;1.60;;;8.10;99.90;;;;;;6274334;22;20011;-83
2023/01/12 05:18:55;;;;;;;10.77;1.48;;;8.10;99.90;;;;;;6271900;22;20007;-83
2023/01/12 05:21:22;;;;;;;10.43;1.95;;;8.10;99.90;;;;;;6249247;22;20023;-83
2023/01/12 05:23:50;;;;;;;7.70;1.42;;;8.10;99.90;;;;;;6272779;22;20021;-83
2023/01/12 05:26:16;;;;;;;9.18;1.77;;;8.10;99.90;;;;;;6272355;22;20023;-83
2023/01/12 05:28:41;;;;;;;8.30;1.33;;;8.10;99.90;;;;;;6297399;22;20019;-83
2023/01/12 05:31:10;;;;;;;10.70;1.30;;;8.10;99.90;;;;;;6273316;22;20088;-83
2023/01/12 05:33:38;;;;;;;5.15;0.98;;;8.00;99.90;;;;;;6272726;22;20056;-83
2023/01/12 05:36:07;;;;;;;10.30;1.52;;;8.50;99.90;;;;;;6273386;22;20030;-83
2023/01/12 05:38:32;;;;;;;6.40;1.20;;;8.00;99.90;;;;;;6272770;22;20050;-83
2023/01/12 05:40:59;;;;;;;9.25;1.35;;;8.00;99.90;;;;;;6247246;22;20011;-83
2023/01/12 05:46:10;;;;;;;5.28;1.50;;;8.60;99.90;;;;;;6272933;22;20448;-83
2023/01/12 05:48:36;;;;;;;3.45;1.33;;;8.10;99.90;;;;;;6273552;22;20073;-83
2023/01/12 05:51:02;;;;;;;9.13;1.00;;;8.10;99.90;;;;;;6273234;22;20019;-83
2023/01/12 05:53:28;;;;;;;7.20;1.40;;;8.00;99.90;;;;;;6272671;22;20047;-83
2023/01/12 05:55:56;;;;;;;5.35;1.48;;;8.00;99.90;;;;;;6247655;22;20066;-83
2023/01/12 05:58:21;;;;;;;4.68;1.00;;;8.00;99.90;;;;;;6273358;22;20094;-83
2023/01/12 06:00:47;;;;;;;4.45;1.02;;;8.00;99.90;;;;;;6323094;22;20105;-83
2023/01/12 06:03:13;;;;;;;8.60;1.13;;;8.10;99.90;;;;;;6274037;22;20050;-83
2023/01/12 06:05:39;;;;;;;5.10;1.35;;;8.20;99.90;;;;;;6299255;22;20015;-83
2023/01/12 06:08:05;;;;;;;5.25;0.90;;;8.00;99.90;;;;;;6272455;22;20030;-83
2023/01/12 06:10:33;;;;;;;6.95;1.20;;;8.00;99.90;;;;;;6274001;22;20022;-83
2023/01/12 06:15:43;;;;;;;5.90;1.25;;;8.30;99.90;;;;;;6272079;22;20362;-83
2023/01/12 06:18:09;;;;;;;3.47;0.93;;;8.30;99.90;;;;;;6275465;22;20090;-83
2023/01/12 06:20:34;;;;;;;5.40;1.27;;;8.40;99.90;;;;;;6274794;22;20058;-83
2023/01/12 06:23:01;;;;;;;4.57;1.10;;;8.30;99.90;;;;;;6275452;22;20159;-84
2023/01/12 06:25:28;;;;;;;5.13;1.23;;;8.20;99.90;;;;;;6275136;22;20045;-84
2023/01/12 06:27:55;;;;;;;3.08;1.00;;;8.10;99.90;;;;;;6273857;22;20046;-84
2023/01/12 06:30:21;;;;;;;2.67;0.80;;;8.20;99.90;;;;;;6300882;22;20015;-83
2023/01/12 06:32:47;;;;;;;2.65;0.73;;;8.10;99.90;;;;;;6275031;22;20370;-83
2023/01/12 06:35:13;;;;;;;1.52;0.50;;;8.20;99.90;;;;;;6326666;22;20026;-83
2023/01/12 06:37:38;;;;;;;3.25;0.70;;;8.20;99.90;;;;;;6274964;22;20015;-83
2023/01/12 06:40:04;;;;;;;4.78;1.20;;;8.20;99.90;;;;;;6326432;22;20026;-83
2023/01/12 06:42:30;;;;;;;4.63;0.70;;;8.30;99.90;;;;;;6274146;22;20022;-84
2023/01/12 06:44:57;;;;;;;1.98;0.50;;;8.50;99.90;;;;;;6247648;22;20016;-83
2023/01/12 06:47:23;;;;;;;2.03;0.40;;;8.30;99.90;;;;;;6250492;22;20344;-83
2023/01/12 06:49:50;;;;;;;1.38;0.50;;;8.40;99.90;;;;;;6273259;22;20470;-83
2023/01/12 06:52:23;;;;;;;2.38;0.60;;;8.40;99.90;;;;;;6275724;22;20018;-84
2023/01/12 06:54:49;;;;;;;2.45;0.70;;;8.50;99.90;;;;;;6249338;22;20023;-84
2023/01/12 06:57:15;;;;;;;2.10;0.77;;;8.50;99.90;;;;;;6274222;22;20023;-84
2023/01/12 06:59:41;;;;;;;4.13;0.90;;;8.80;99.90;;;;;;6326207;22;20099;-84
2023/01/12 07:02:12;;;;;;;4.85;0.80;;;8.50;99.90;;;;;;6275527;22;20022;-84
2023/01/12 07:04:39;;;;;;;1.88;0.60;;;8.50;99.90;;;;;;6274081;22;20061;-84
2023/01/12 07:07:06;;;;;;;4.38;1.23;;;8.70;99.90;;;;;;6300781;22;20080;-83
2023/01/12 07:09:32;;;;;;;6.85;1.27;;;8.70;99.90;;;;;;6275091;22;20072;-84
2023/01/12 07:11:58;;;;;;;6.60;1.40;;;8.70;99.90;;;;;;6248081;22;20451;-83
2023/01/12 07:14:24;;;;;;;5.00;1.30;;;8.80;99.90;;;;;;6326541;22;20060;-85
2023/01/12 07:16:49;;;;;;;8.25;1.75;;;8.80;99.90;;;;;;6299299;22;20027;-83
2023/01/12 07:19:15;;;;;;;8.23;1.58;;;9.00;99.90;;;;;;6275980;22;20023;-83
2023/01/12 07:21:42;;;;;;;8.27;1.75;;;8.90;99.90;;;;;;6326461;22;20026;-84
2023/01/12 07:24:09;;;;;;;9.30;1.98;;;8.90;99.90;;;;;;6273971;22;20463;-84
2023/01/12 07:26:35;;;;;;;6.20;1.55;;;8.90;99.90;;;;;;6275522;22;20019;-83
2023/01/12 07:29:00;;;;;;;10.23;2.30;;;9.10;99.90;;;;;;6324279;22;20107;-83
2023/01/12 07:31:26;;;;;;;6.25;2.17;;;9.20;99.90;;;;;;6274731;22;20015;-83
2023/01/12 07:33:52;;;;;;;8.93;2.22;;;9.10;99.90;;;;;;6273846;22;20015;-83
2023/01/12 07:36:19;;;;;;;10.80;1.73;;;9.40;99.90;;;;;;6274997;22;20019;-84
2023/01/12 07:38:44;;;;;;;11.55;2.50;;;9.30;99.90;;;;;;6273414;22;20462;-83
2023/01/12 07:42:22;;;;;;;13.48;2.17;;;9.20;99.90;;;;;;6326079;22;20018;-84
2023/01/12 07:43:56;;;;;;;11.68;2.08;;;9.30;99.90;;;;;;6273173;22;20054;-84
2023/01/12 07:46:22;;;;;;;13.85;2.53;;;9.40;99.90;;;;;;6274717;22;20011;-84
2023/01/12 07:48:48;;;;;;;17.65;2.78;;;9.40;99.90;;;;;;6248130;22;20019;-86
2023/01/12 07:51:14;;;;;;;13.80;2.50;;;9.40;99.90;;;;;;6249776;22;20086;-84
2023/01/12 07:53:39;;;;;;;16.75;2.70;;;9.80;99.90;;;;;;6273984;22;20019;-83
2023/01/12 07:56:05;;;;;;;14.10;2.30;;;9.50;99.90;;;;;;6326213;22;20098;-84
2023/01/12 07:58:31;;;;;;;16.50;3.22;;;9.60;99.90;;;;;;6274128;22;20090;-83
2023/01/12 08:00:58;;;;;;;19.40;2.97;;;9.60;99.90;;;;;;6272959;22;20068;-83
2023/01/12 08:03:24;;;;;;;21.63;3.00;;;9.60;99.90;;;;;;6326470;22;20462;-84
2023/01/12 08:05:50;;;;;;;24.90;3.10;;;9.60;99.90;;;;;;6273460;22;20015;-84
2023/01/12 08:08:16;;;;;;;18.80;2.90;;;9.70;99.90;;;;;;6274013;22;20015;-84
2023/01/12 08:10:44;;;;;;;20.88;3.65;;;9.80;99.90;;;;;;6325904;22;20015;-84
2023/01/12 08:13:09;;;;;;;23.27;4.15;;;10.00;99.90;;;;;;6273240;22;20007;-83
2023/01/12 08:15:41;;;;;;;27.35;4.22;;;9.80;99.90;;;;;;6274471;22;20390;-82
2023/01/12 08:18:16;;;;;;;21.75;3.80;;;9.80;99.90;;;;;;6273629;22;20444;-82
2023/01/12 08:20:42;;;;;;;27.33;3.53;;;9.90;99.90;;;;;;6273550;22;20019;-82
2023/01/12 08:23:15;;;;;;;24.13;4.10;;;9.90;99.90;;;;;;6274713;22;20019;-82
2023/01/12 08:25:45;;;;;;;22.27;3.38;;;10.10;99.90;;;;;;6274128;22;20022;-82
2023/01/12 08:28:18;;;;;;;23.15;2.80;;;10.00;99.90;;;;;;6299321;22;20023;-84
2023/01/12 08:30:46;;;;;;;23.73;3.93;;;10.10;99.90;;;;;;6247590;22;20023;-83
2023/01/12 08:33:12;;;;;;;21.77;3.80;;;10.20;99.90;;;;;;6273378;22;20253;-83
2023/01/12 08:35:38;;;;;;;24.88;3.47;;;10.30;99.90;;;;;;6246837;22;20019;-83
2023/01/12 08:38:03;;;;;;;18.98;3.05;;;10.10;99.90;;;;;;6247825;22;20015;-85
2023/01/12 08:41:31;;;;;;;20.98;2.83;;;10.30;99.90;;;;;;6247719;22;20019;-85
2023/01/12 08:44:00;;;;;;;24.38;2.60;;;10.30;99.90;;;;;;6272550;22;20019;-85
2023/01/12 08:46:06;;;;;;;24.60;3.50;;;10.30;99.90;;;;;;6273310;22;20455;-86
2023/01/12 08:48:34;;;;;;;25.00;3.25;;;10.30;99.90;;;;;;6272893;22;20019;-84
2023/01/12 08:51:00;;;;;;;26.80;4.18;;;10.20;99.90;;;;;;6273879;22;20076;-84
2023/01/12 08:53:25;;;;;;;20.45;3.15;;;10.30;99.90;;;;;;6249221;22;20098;-84
2023/01/12 08:55:52;;;;;;;25.38;4.00;;;10.30;99.90;;;;;;6324356;22;20019;-84
2023/01/12 08:58:17;;;;;;;20.45;2.92;;;10.40;99.90;;;;;;6274316;22;20470;-84
2023/01/12 09:00:43;;;;;;;22.77;3.83;;;10.30;99.90;;;;;;6273498;22;20019;-84
2023/01/12 09:03:09;;;;;;;23.23;2.80;;;10.40;99.90;;;;;;6273829;22;20391;-84
2023/01/12 09:05:34;;;;;;;21.50;3.58;;;10.70;99.90;;;;;;6249076;22;20019;-85
2023/01/12 09:08:00;;;;;;;22.38;2.97;;;10.70;99.90;;;;;;6247879;22;20090;-85
2023/01/12 09:10:26;;;;;;;21.48;3.80;;;10.40;99.90;;;;;;6325112;22;20523;-85
2023/01/12 09:12:51;;;;;;;19.80;3.55;;;10.40;99.90;;;;;;6273327;22;20050;-85
2023/01/12 09:15:17;;;;;;;21.17;3.20;;;10.40;99.90;;;;;;6248320;22;20019;-85
2023/01/12 09:17:43;;;;;;;22.58;3.40;;;10.40;99.90;;;;;;6273290;22;20016;-85
2023/01/12 09:20:10;;;;;;;19.88;3.22;;;10.50;99.90;;;;;;6273852;22;20019;-85
2023/01/12 09:22:36;;;;;;;21.50;3.35;;;10.40;99.90;;;;;;6300242;22;20088;-85
2023/01/12 09:25:02;;;;;;;29.95;3.65;;;10.50;99.90;;;;;;6246847;22;20359;-84
2023/01/12 09:27:27;;;;;;;29.60;3.25;;;10.40;99.90;;;;;;6273824;22;20058;-85
2023/01/12 09:29:53;;;;;;;25.95;3.50;;;10.60;99.90;;;;;;6273178;22;20026;-85
2023/01/12 09:32:19;;;;;;;24.75;3.22;;;10.50;99.90;;;;;;6272844;22;20015;-84
2023/01/12 09:34:47;;;;;;;19.83;3.10;;;10.40;99.90;;;;;;6273347;22;20019;-85
2023/01/12 09:37:13;;;;;;;17.60;3.10;;;10.50;99.90;;;;;;6273808;22;20514;-84
2023/01/12 09:39:39;;;;;;;26.27;4.13;;;10.50;99.90;;;;;;6247776;22;20065;-85
2023/01/12 09:47:55;;;;;;;23.88;3.05;;;10.50;99.90;;;;;;6273010;22;20027;-84
2023/01/12 09:50:25;;;;;;;24.73;3.30;;;10.50;99.90;;;;;;6273257;22;20019;-84
2023/01/12 09:53:06;;;;;;;18.63;3.10;;;10.50;99.90;;;;;;6246618;22;20042;-85
2023/01/12 09:55:54;;;;;;;21.48;3.67;;;10.60;99.90;;;;;;6273831;22;20539;-85
2023/01/12 09:58:51;;;;;;;25.83;3.40;;;10.60;99.90;;;;;;6273228;22;20019;-85
2023/01/12 10:01:20;;;;;;;22.00;3.03;;;10.70;99.90;;;;;;6274036;22;20067;-85
2023/01/12 10:03:45;;;;;;;22.80;3.00;;;10.70;99.90;;;;;;6298406;22;20065;-85
2023/01/12 10:06:15;;;;;;;15.05;2.05;;;10.80;99.90;;;;;;6298548;22;20023;-85
2023/01/12 10:08:54;;;;;;;20.83;2.45;;;10.90;99.90;;;;;;6299205;22;20011;-85
2023/01/12 10:11:24;;;;;;;23.98;3.55;;;10.80;99.90;;;;;;6273959;22;20106;-86
2023/01/12 10:14:23;;;;;;;21.33;2.67;;;10.90;99.90;;;;;;6270712;22;20019;-86
2023/01/12 10:17:10;;;;;;;21.33;3.08;;;10.80;99.90;;;;;;6273014;22;20449;-85
2023/01/12 10:19:52;;;;;;;19.98;3.05;;;10.80;99.90;;;;;;6272232;22;20444;-85
2023/01/12 10:22:35;;;;;;;23.05;3.25;;;10.60;99.90;;;;;;6273373;22;20019;-85
2023/01/12 10:25:16;;;;;;;20.48;2.70;;;10.80;99.90;;;;;;6272069;22;20096;-85
2023/01/12 10:27:45;;;;;;;19.98;2.90;;;10.80;99.90;;;;;;6297043;22;20386;-85
2023/01/12 10:30:15;;;;;;;17.25;2.88;;;10.80;99.90;;;;;;6273158;22;20072;-85
2023/01/12 10:32:40;;;;;;;20.63;3.40;;;10.90;99.90;;;;;;6272927;22;20435;-85
2023/01/12 10:35:14;;;;;;;14.52;2.50;;;10.90;99.90;;;;;;6272015;22;20022;-85
2023/01/12 10:37:45;;;;;;;22.60;2.63;;;10.80;99.90;;;;;;6273718;22;20459;-85
2023/01/12 10:40:23;;;;;;;20.45;3.58;;;10.90;99.90;;;;;;6248650;22;20084;-85
2023/01/12 10:43:19;;;;;;;16.48;2.63;;;10.80;99.90;;;;;;6271761;22;20021;-85
2023/01/12 10:46:12;;;;;;;17.70;2.72;;;10.90;99.90;;;;;;6246818;22;20042;-85
2023/01/12 10:48:39;;;;;;;;;;;10.90;99.90;;;;;;6273478;22;20501;-85
2023/01/12 10:51:16;;;;;;;16.48;2.53;;;10.90;99.90;;;;;;6272972;22;19964;-85
2023/01/12 10:53:48;;;;;;;18.50;2.90;;;10.90;99.90;;;;;;6273875;22;20051;-85
2023/01/12 10:56:23;;;;;;;20.13;3.25;;;11.10;99.90;;;;;;6273231;22;20088;-85
2023/01/12 10:58:53;;;;;;;15.85;2.30;;;10.90;99.90;;;;;;6297260;22;20015;-85
2023/01/12 11:01:20;;;;;;;16.63;2.65;;;11.00;99.90;;;;;;6274221;22;20026;-85
2023/01/12 11:03:46;;;;;;;14.77;2.63;;;11.00;99.90;;;;;;6245971;22;20470;-84
2023/01/12 11:06:15;;;;;;;22.20;2.90;;;11.00;99.90;;;;;;6250209;22;20023;-85
2023/01/12 11:08:42;;;;;;;11.80;1.73;;;10.90;99.90;;;;;;6275075;22;20326;-85
2023/01/12 11:11:23;;;;;;;18.70;2.83;;;10.90;99.90;;;;;;6274210;22;20454;-84
2023/01/12 11:13:53;;;;;;;17.23;3.38;;;10.90;99.90;;;;;;6299272;22;20532;-84
2023/01/12 11:16:23;;;;;;;13.38;2.50;;;10.90;99.90;;;;;;6274547;22;20098;-85
2023/01/12 11:19:02;;;;;;;15.15;2.53;;;10.90;99.90;;;;;;6249282;22;20015;-85
2023/01/12 11:21:34;;;;;;;22.13;3.20;;;10.90;99.90;;;;;;6275588;22;20366;-85
2023/01/12 11:24:05;;;;;;;15.93;2.85;;;11.00;99.90;;;;;;6247533;22;20093;-85
2023/01/12 11:26:42;;;;;;;18.23;2.85;;;11.00;99.90;;;;;;6249916;22;20023;-86
2023/01/12 11:29:26;;;;;;;22.30;3.38;;;11.00;99.90;;;;;;6274793;22;20019;-85
2023/01/12 11:31:56;;;;;;;17.95;2.95;;;11.10;99.90;;;;;;6273559;22;20364;-85
2023/01/12 11:34:28;;;;;;;22.30;3.65;;;11.10;99.90;;;;;;6274416;22;20591;-86
2023/01/12 11:37:10;;;;;;;18.45;2.75;;;11.20;99.90;;;;;;6247978;22;20015;-85
2023/01/12 11:39:39;;;;;;;23.77;2.72;;;11.30;99.90;;;;;;6275087;22;20015;-86
2023/01/12 11:45:05;;;;;;;;;;;11.30;99.90;;;;;;6273244;22;20576;-85
2023/01/12 11:47:39;;;;;;;15.20;2.38;;;11.30;99.90;;;;;;6300768;22;19937;-85
2023/01/12 11:50:17;;;;;;;16.85;2.80;;;11.40;99.90;;;;;;6248337;22;20019;-86
2023/01/12 11:52:43;;;;;;;13.18;2.38;;;11.40;99.90;;;;;;6273578;22;20011;-85
2023/01/12 11:55:15;;;;;;;17.80;2.50;;;11.40;99.90;;;;;;6274632;22;20382;-85
2023/01/12 11:58:01;;;;;;;13.65;2.63;;;11.50;99.90;;;;;;6299632;22;20008;-84
2023/01/12 12:00:27;;;;;;;17.67;2.70;;;11.50;99.90;;;;;;6248188;22;20019;-84
2023/01/12 12:03:11;;;;;;;17.33;2.65;;;11.50;99.90;;;;;;6273652;22;20023;-84
2023/01/12 12:05:51;;;;;;;18.23;2.35;;;11.50;99.90;;;;;;6273139;22;20012;-85
2023/01/12 12:08:27;;;;;;;20.08;2.35;;;11.50;99.90;;;;;;6274343;22;20008;-84
2023/01/12 12:10:59;;;;;;;24.15;2.67;;;11.70;99.90;;;;;;6273026;22;20019;-84
2023/01/12 12:13:31;;;;;;;16.63;2.33;;;11.70;99.90;;;;;;6273155;22;20054;-84
2023/01/12 12:16:19;;;;;;;17.17;2.40;;;11.80;99.90;;;;;;6273562;22;20084;-84
2023/01/12 12:18:51;;;;;;;12.63;1.98;;;11.80;99.90;;;;;;6273588;22;20084;-84
2023/01/12 12:21:39;;;;;;;16.87;2.40;;;11.70;99.90;;;;;;6273657;22;20015;-83
2023/01/12 12:24:23;;;;;;;16.10;2.63;;;11.70;99.90;;;;;;6273667;22;20017;-83
2023/01/12 12:27:16;;;;;;;13.50;2.22;;;11.70;99.90;;;;;;6273149;22;20027;-84
2023/01/12 12:30:02;;;;;;;20.58;3.00;;;11.60;99.90;;;;;;6247916;22;20416;-83
2023/01/12 12:32:30;;;;;;;17.75;2.38;;;11.60;99.90;;;;;;6273957;22;20342;-83
2023/01/12 12:35:05;;;;;;;20.42;3.15;;;11.60;99.90;;;;;;6272993;22;20019;-83
2023/01/12 12:37:51;;;;;;;20.33;2.67;;;11.60;99.90;;;;;;6249128;22;20021;-84
2023/01/12 12:45:15;;;;;;;23.08;2.90;;;11.60;99.90;;;;;;6273215;22;20473;-83
2023/01/12 12:46:34;;;;;;;16.13;2.78;;;11.60;99.90;;;;;;6274284;22;20363;-83
2023/01/12 12:49:07;;;;;;;14.07;2.10;;;11.60;99.90;;;;;;6272018;22;20076;-84
2023/01/12 12:51:35;;;;;;;11.73;2.08;;;11.40;99.90;;;;;;6274707;22;20339;-84
2023/01/12 12:54:05;;;;;;;15.27;2.05;;;11.30;99.90;;;;;;6272865;22;20015;-83
2023/01/12 12:56:34;;;;;;;17.88;2.80;;;11.20;99.90;;;;;;6273501;22;20015;-84
2023/01/12 12:59:01;;;;;;;16.27;2.53;;;11.20;99.90;;;;;;6269114;22;20431;-82
2023/01/12 13:01:37;;;;;;;17.60;2.50;;;11.20;99.90;;;;;;6271194;22;20070;-84
2023/01/12 13:04:04;;;;;;;24.58;2.95;;;11.10;99.90;;;;;;6271848;22;20073;-84
2023/01/12 13:06:37;;;;;;;20.90;3.15;;;11.10;99.90;;;;;;6274588;22;20055;-83
2023/01/12 13:09:09;;;;;;;22.55;2.90;;;11.10;99.90;;;;;;6246332;22;20072;-83
2023/01/12 13:11:52;;;;;;;22.60;3.00;;;11.20;99.90;;;;;;6272260;22;20058;-84
2023/01/12 13:14:31;;;;;;;24.75;3.25;;;11.20;99.90;;;;;;6272460;22;20047;-83
2023/01/12 13:17:01;;;;;;;26.38;3.65;;;11.20;99.90;;;;;;6271481;22;20011;-83
2023/01/12 13:19:34;;;;;;;22.33;2.80;;;11.20;99.90;;;;;;6273535;22;20015;-84
2023/01/12 13:22:41;;;;;;;20.25;2.97;;;11.10;99.90;;;;;;6246968;22;20439;-83
2023/01/12 13:25:16;;;;;;;23.42;3.97;;;11.10;99.90;;;;;;6272604;22;20026;-82
2023/01/12 13:28:16;;;;;;;17.23;2.92;;;11.10;99.90;;;;;;6272692;22;20027;-83
2023/01/12 13:30:50;;;;;;;27.05;3.22;;;11.20;99.90;;;;;;6270924;22;20019;-83
2023/01/12 13:33:23;;;;;;;19.85;3.15;;;11.20;99.90;;;;;;6272670;22;20101;-83
2023/01/12 13:35:48;;;;;;;20.35;3.03;;;11.20;99.90;;;;;;6272914;22;20022;-83
2023/01/12 13:38:32;;;;;;;20.15;3.13;;;11.20;99.90;;;;;;6272654;22;20336;-84